Time;durP1;ratioP1;P1;durP2;ratioP2;P2;SDS_P1;SDS_P2;PMS_P1;PMS_P2;Temp;Humidity;BMP_temperature;BMP_pressure;BME280_temperature;BME280_humidity;BME280_pressure;Samples;Min_cycle;Max_cycle;Signal;HPM_P1;HPM_P2
2021/10/12 00:09:33;;;;;;;1.13;0.47;;;11.50;99.90;;;;;;20732466;28;20037;-46
2021/10/12 00:19:34;;;;;;;1.85;0.40;;;11.50;99.90;;;;;;20620169;28;20042;-46
2021/10/12 00:29:35;;;;;;;9.20;1.00;;;11.50;99.90;;;;;;20626351;28;20423;-45
2021/10/12 00:39:37;;;;;;;1.80;0.43;;;11.60;99.90;;;;;;20634089;28;20511;-45
2021/10/12 00:49:38;;;;;;;6.40;0.73;;;11.50;99.90;;;;;;20714197;28;20049;-45
2021/10/12 00:59:40;;;;;;;3.20;0.40;;;11.50;99.90;;;;;;20742085;28;20103;-45
2021/10/12 01:09:42;;;;;;;0.57;0.38;;;11.40;99.90;;;;;;20749241;28;20038;-45
2021/10/12 01:19:46;;;;;;;0.73;0.20;;;11.40;99.90;;;;;;20756017;28;20065;-45
2021/10/12 01:29:48;;;;;;;1.15;0.30;;;11.40;99.90;;;;;;20676931;28;20037;-46
2021/10/12 01:39:49;;;;;;;2.75;0.25;;;11.40;99.90;;;;;;20649056;28;20289;-45
2021/10/12 01:49:51;;;;;;;1.55;0.20;;;11.30;99.90;;;;;;20653362;28;20038;-45
2021/10/12 01:59:52;;;;;;;1.98;0.20;;;11.20;99.90;;;;;;20719364;28;20060;-46
2021/10/12 02:09:55;;;;;;;8.07;0.98;;;11.20;99.90;;;;;;20756167;28;20120;-45
2021/10/12 02:19:57;;;;;;;7.15;0.85;;;11.10;99.90;;;;;;20732321;28;20060;-45
2021/10/12 02:29:58;;;;;;;0.95;0.10;;;11.10;99.90;;;;;;20740103;28;20052;-45
2021/10/12 02:39:59;;;;;;;1.13;0.40;;;11.00;99.90;;;;;;20660250;28;20179;-46
2021/10/12 02:50:03;;;;;;;4.13;0.93;;;11.00;99.90;;;;;;20636169;28;20041;-45
2021/10/12 03:00:05;;;;;;;1.73;0.22;;;10.90;99.90;;;;;;20640266;28;20080;-45
2021/10/12 03:10:13;;;;;;;2.05;0.25;;;11.00;99.90;;;;;;20682758;28;20462;-45
2021/10/12 03:20:15;;;;;;;1.92;0.68;;;10.90;99.90;;;;;;20728733;28;20569;-45
2021/10/12 03:30:16;;;;;;;3.15;0.22;;;10.90;99.90;;;;;;20718699;28;20049;-45
2021/10/12 03:40:17;;;;;;;0.70;0.25;;;10.90;99.90;;;;;;20736268;28;20681;-45
2021/10/12 03:50:18;;;;;;;1.23;0.50;;;10.90;99.90;;;;;;20671364;28;20041;-45
2021/10/12 04:00:19;;;;;;;1.77;0.80;;;10.90;99.90;;;;;;20647393;28;20463;-45
2021/10/12 04:10:22;;;;;;;2.05;0.80;;;10.90;99.90;;;;;;20670250;28;20077;-45
2021/10/12 04:20:27;;;;;;;1.13;0.63;;;10.90;99.90;;;;;;20664544;28;20065;-45
2021/10/12 04:30:28;;;;;;;1.95;0.50;;;10.90;99.90;;;;;;20727443;28;20042;-45
2021/10/12 04:40:30;;;;;;;1.10;0.40;;;10.90;99.90;;;;;;20730851;28;20069;-45
2021/10/12 04:50:31;;;;;;;3.17;0.80;;;11.00;99.90;;;;;;20724838;28;20037;-45
2021/10/12 05:00:32;;;;;;;3.95;0.65;;;11.00;99.90;;;;;;20675094;28;20573;-45
2021/10/12 05:10:33;;;;;;;2.08;0.60;;;11.00;99.90;;;;;;20631419;28;20042;-45
2021/10/12 05:20:34;;;;;;;2.03;1.10;;;11.00;99.90;;;;;;20628940;28;20080;-45
2021/10/12 05:30:39;;;;;;;7.78;0.60;;;11.10;99.90;;;;;;20662873;28;20046;-45
2021/10/12 05:40:42;;;;;;;1.83;0.70;;;11.20;99.90;;;;;;20719154;28;20077;-45
2021/10/12 05:50:46;;;;;;;1.83;0.82;;;11.20;99.90;;;;;;20744474;28;20061;-45
2021/10/12 06:00:47;;;;;;;3.05;0.68;;;11.30;99.90;;;;;;20732420;28;20057;-45
2021/10/12 06:10:48;;;;;;;3.22;1.25;;;11.30;99.90;;;;;;20698008;28;20049;-45
2021/10/12 06:20:50;;;;;;;5.00;1.17;;;11.40;99.90;;;;;;20643735;28;20041;-45
2021/10/12 06:30:51;;;;;;;3.17;1.05;;;11.50;99.90;;;;;;20633733;28;20062;-46
2021/10/12 06:40:52;;;;;;;9.77;1.20;;;11.40;99.90;;;;;;20635422;28;21444;-45
2021/10/12 06:50:53;;;;;;;1.75;0.65;;;11.50;99.90;;;;;;20744369;28;20057;-45
2021/10/12 07:00:54;;;;;;;3.63;1.10;;;11.60;99.90;;;;;;20748078;28;20045;-45
2021/10/12 07:10:56;;;;;;;2.58;0.70;;;11.70;99.90;;;;;;20763841;28;20064;-46
2021/10/12 07:20:57;;;;;;;4.47;0.77;;;11.80;99.90;;;;;;20757912;28;20275;-45
2021/10/12 07:31:03;;;;;;;3.28;0.73;;;11.90;99.90;;;;;;20721015;28;20041;-45
2021/10/12 07:41:04;;;;;;;3.00;1.00;;;11.90;99.90;;;;;;20718840;28;20067;-45
2021/10/12 07:51:06;;;;;;;9.45;1.42;;;12.10;99.90;;;;;;20719514;28;20046;-45
2021/10/12 08:01:07;;;;;;;3.90;1.20;;;12.40;99.90;;;;;;20738148;28;20045;-45
2021/10/12 08:11:08;;;;;;;3.45;1.05;;;12.50;99.90;;;;;;20751340;28;20034;-45
2021/10/12 08:21:10;;;;;;;4.72;0.73;;;12.60;99.90;;;;;;20750072;28;20054;-45
2021/10/12 08:31:11;;;;;;;4.75;0.75;;;12.70;99.90;;;;;;20749932;28;20052;-45
2021/10/12 08:41:16;;;;;;;2.63;0.85;;;12.70;99.90;;;;;;20669986;28;20045;-45
2021/10/12 08:51:17;;;;;;;1.92;0.57;;;12.80;99.90;;;;;;20687739;28;20068;-45
2021/10/12 09:01:19;;;;;;;3.53;0.70;;;12.90;99.90;;;;;;20649347;28;20570;-48
2021/10/12 09:11:22;;;;;;;2.47;0.40;;;12.80;99.90;;;;;;20737761;28;20049;-47
2021/10/12 09:21:29;;;;;;;1.30;0.10;;;12.50;99.90;;;;;;20770562;28;20124;-48
2021/10/12 09:31:44;;;;;;;2.20;0.30;;;12.20;99.90;;;;;;20764315;28;20086;-47
2021/10/12 09:41:46;;;;;;;3.88;0.82;;;12.20;99.90;;;;;;20779781;28;20076;-46
2021/10/12 09:51:58;;;;;;;2.45;0.75;;;12.30;99.90;;;;;;20725580;28;20041;-46
2021/10/12 10:02:01;;;;;;;0.50;0.10;;;12.50;99.90;;;;;;20713079;28;20539;-46
2021/10/12 10:12:06;;;;;;;0.95;0.45;;;12.70;99.90;;;;;;20717306;28;20121;-46
2021/10/12 10:22:07;;;;;;;2.00;0.40;;;12.80;99.90;;;;;;20755161;28;20408;-46
2021/10/12 11:10:03;;;;;;;0.68;0.20;;;12.50;99.90;;;;;;20876516;27;20624;-46
2021/10/12 11:20:11;;;;;;;0.28;0.10;;;13.00;99.90;;;;;;20783136;28;20582;-46
2021/10/12 11:30:16;;;;;;;2.40;0.20;;;12.90;99.90;;;;;;20786929;28;20049;-46
2021/10/12 11:40:22;;;;;;;0.22;0.00;;;13.40;99.90;;;;;;20795300;28;20108;-46
2021/10/12 11:50:24;;;;;;;4.03;0.22;;;13.90;99.90;;;;;;20758837;28;20045;-46
2021/10/12 12:00:36;;;;;;;1.45;0.50;;;14.20;99.90;;;;;;20739250;28;20060;-45
2021/10/12 12:10:38;;;;;;;3.63;0.10;;;14.30;99.90;;;;;;20744295;28;20046;-45
2021/10/12 12:20:59;;;;;;;1.58;0.10;;;13.70;99.90;;;;;;20738583;28;20030;-46
2021/10/12 12:31:23;;;;;;;0.98;0.52;;;14.30;99.90;;;;;;20741563;28;21605;-46
2021/10/12 12:41:26;;;;;;;2.20;0.13;;;15.00;99.90;;;;;;20742418;28;20050;-46
2021/10/12 12:51:30;;;;;;;0.65;0.20;;;14.10;99.90;;;;;;20710642;28;20039;-46
2021/10/12 13:01:31;;;;;;;0.15;0.08;;;14.40;99.90;;;;;;20679102;28;20498;-45
2021/10/12 13:11:35;;;;;;;1.02;0.15;;;13.90;99.90;;;;;;20678970;28;20042;-45
2021/10/12 13:21:36;;;;;;;2.13;0.30;;;14.60;99.90;;;;;;20719023;28;20026;-45
2021/10/12 13:31:38;;;;;;;0.30;0.10;;;15.10;99.90;;;;;;20728144;28;20053;-45
2021/10/12 13:41:39;;;;;;;2.08;0.28;;;14.40;99.90;;;;;;20713563;28;20042;-45
2021/10/12 13:51:40;;;;;;;0.20;0.10;;;14.80;99.90;;;;;;20728772;28;20045;-45
2021/10/12 14:01:41;;;;;;;0.45;0.25;;;13.80;99.90;;;;;;20722886;28;20041;-46
2021/10/12 14:11:43;;;;;;;4.95;0.57;;;15.40;99.90;;;;;;20728854;28;20057;-46
2021/10/12 14:21:44;;;;;;;0.77;0.08;;;15.70;99.90;;;;;;20731624;28;20068;-46
2021/10/12 14:31:45;;;;;;;2.55;0.10;;;15.50;99.90;;;;;;20723257;28;20045;-45
2021/10/12 14:41:46;;;;;;;1.05;0.20;;;15.30;99.90;;;;;;20726007;28;20487;-45
2021/10/12 14:51:47;;;;;;;3.70;0.82;;;13.80;99.90;;;;;;20735704;28;20053;-45
2021/10/12 15:01:49;;;;;;;4.53;0.40;;;13.70;99.90;;;;;;20721749;28;20046;-45
2021/10/12 15:11:50;;;;;;;0.52;0.10;;;13.60;99.90;;;;;;20727964;28;20034;-45
2021/10/12 15:21:52;;;;;;;1.95;0.40;;;13.40;99.90;;;;;;20723399;28;20038;-45
2021/10/12 15:31:53;;;;;;;0.80;0.20;;;13.10;99.90;;;;;;20712416;28;20073;-45
2021/10/12 15:42:03;;;;;;;0.40;0.10;;;12.90;99.90;;;;;;20719379;28;20096;-45
2021/10/12 15:52:08;;;;;;;1.20;0.20;;;12.70;99.90;;;;;;20717683;28;20530;-45
2021/10/12 16:02:09;;;;;;;2.28;0.40;;;12.50;99.90;;;;;;20713900;28;20206;-45
2021/10/12 16:12:15;;;;;;;0.90;0.22;;;12.30;99.90;;;;;;20706864;28;20059;-45
2021/10/12 16:22:16;;;;;;;1.70;1.00;;;12.20;99.90;;;;;;20719082;28;20364;-45
2021/10/12 16:32:17;;;;;;;0.43;0.13;;;12.00;99.90;;;;;;20695639;28;20703;-45
2021/10/12 16:42:19;;;;;;;1.90;0.30;;;11.80;99.90;;;;;;20700906;28;20056;-45
2021/10/12 16:52:20;;;;;;;1.55;0.57;;;11.60;99.90;;;;;;20699046;28;20991;-45
2021/10/12 17:02:21;;;;;;;1.50;0.45;;;11.50;99.90;;;;;;20692802;28;20038;-45
2021/10/12 17:12:24;;;;;;;1.58;0.40;;;11.30;99.90;;;;;;20717997;28;20052;-45
2021/10/12 17:22:25;;;;;;;0.73;0.30;;;11.10;99.90;;;;;;20702591;28;20037;-45
2021/10/12 17:32:31;;;;;;;2.20;0.25;;;11.00;99.90;;;;;;20706794;28;20545;-45
2021/10/12 17:42:32;;;;;;;0.70;0.13;;;10.80;99.90;;;;;;20709995;28;20045;-45
2021/10/12 17:52:36;;;;;;;1.83;0.52;;;10.40;99.90;;;;;;20708777;28;20462;-45
2021/10/12 18:02:40;;;;;;;1.55;0.30;;;10.20;99.90;;;;;;20698860;28;20451;-45
2021/10/12 18:12:41;;;;;;;2.63;0.93;;;9.90;99.90;;;;;;20667065;28;20054;-45
2021/10/12 18:22:42;;;;;;;1.85;0.60;;;9.70;99.90;;;;;;20664417;28;20046;-45
2021/10/12 18:32:43;;;;;;;2.65;1.20;;;9.70;99.90;;;;;;20664659;28;20052;-45
2021/10/12 18:42:44;;;;;;;2.45;0.80;;;9.50;99.90;;;;;;20706883;28;20495;-45
2021/10/12 18:52:46;;;;;;;4.10;0.80;;;9.30;99.90;;;;;;20693338;28;20764;-45
2021/10/12 19:02:47;;;;;;;3.58;1.13;;;9.10;99.90;;;;;;20710575;28;20042;-45
2021/10/12 19:12:49;;;;;;;5.40;1.20;;;9.10;99.90;;;;;;20697546;28;20053;-45
2021/10/12 19:22:50;;;;;;;2.65;1.33;;;9.10;99.90;;;;;;20715385;28;20040;-45
2021/10/12 19:32:51;;;;;;;5.25;0.95;;;9.00;99.90;;;;;;20710301;28;20050;-45
2021/10/12 19:42:52;;;;;;;3.30;1.67;;;8.80;99.90;;;;;;20689102;28;20053;-45
2021/10/12 19:52:54;;;;;;;3.17;0.98;;;8.80;99.90;;;;;;20704256;28;20060;-45
2021/10/12 20:13:16;;;;;;;3.83;1.15;;;8.60;99.90;;;;;;20705485;28;20057;-45
2021/10/12 20:23:17;;;;;;;4.35;1.30;;;8.60;99.90;;;;;;20701015;28;20038;-45
2021/10/12 20:33:19;;;;;;;3.38;1.30;;;8.50;99.90;;;;;;20716918;28;20052;-45
2021/10/12 20:43:21;;;;;;;3.40;1.23;;;8.40;99.90;;;;;;20704558;28;20038;-45
2021/10/12 20:53:22;;;;;;;3.13;1.38;;;8.30;99.90;;;;;;20686912;28;20046;-45
2021/10/12 21:03:24;;;;;;;2.40;0.90;;;8.20;99.90;;;;;;20689360;28;20041;-45
2021/10/12 21:13:25;;;;;;;2.10;1.08;;;8.30;99.90;;;;;;20715581;28;20069;-45
2021/10/12 21:23:26;;;;;;;1.83;0.77;;;8.20;99.90;;;;;;20695641;28;20033;-45
2021/10/12 21:33:27;;;;;;;3.85;1.13;;;8.00;99.90;;;;;;20702073;28;20045;-45
2021/10/12 21:43:32;;;;;;;4.45;0.82;;;7.90;99.90;;;;;;20707916;28;20041;-45
2021/10/12 21:53:33;;;;;;;1.17;0.60;;;7.90;99.90;;;;;;20714618;28;20053;-45
2021/10/12 22:03:34;;;;;;;2.47;1.50;;;7.90;99.90;;;;;;20699366;28;20038;-45
2021/10/12 22:13:36;;;;;;;2.97;0.90;;;8.00;99.90;;;;;;20710939;28;20417;-45
2021/10/12 22:23:38;;;;;;;3.42;1.45;;;8.10;99.90;;;;;;20700049;28;20053;-45
2021/10/12 22:33:42;;;;;;;1.70;0.65;;;8.20;99.90;;;;;;20649731;28;20042;-45
2021/10/12 22:43:46;;;;;;;1.95;0.73;;;8.30;99.90;;;;;;20636432;28;20042;-45
2021/10/12 22:53:47;;;;;;;1.08;0.40;;;8.60;99.90;;;;;;20706243;28;20054;-45
2021/10/12 23:03:50;;;;;;;3.85;0.90;;;8.70;99.90;;;;;;20704661;28;20671;-45
2021/10/12 23:13:51;;;;;;;2.25;0.68;;;8.50;99.90;;;;;;20709755;28;20050;-45
2021/10/12 23:23:52;;;;;;;1.38;0.40;;;8.40;99.90;;;;;;20701462;28;20760;-45
2021/10/12 23:33:53;;;;;;;1.60;0.32;;;8.20;99.90;;;;;;20701149;28;20058;-45
2021/10/12 23:43:56;;;;;;;0.70;0.30;;;8.00;99.90;;;;;;20701801;28;20033;-45
2021/10/12 23:53:57;;;;;;;1.40;0.40;;;7.90;99.90;;;;;;20704007;28;20057;-45
